createdAt,value
2018-09-05T00:00:28.533Z,15.55
2018-09-05T00:02:57.004Z,15.54
2018-09-05T00:05:26.431Z,15.50
2018-09-05T00:07:54.942Z,15.53
2018-09-05T00:10:23.521Z,15.48
2018-09-05T00:12:52.316Z,15.45
2018-09-05T00:15:21.037Z,15.40
2018-09-05T00:17:49.487Z,15.33
2018-09-05T00:20:21.102Z,15.28
2018-09-05T00:22:49.979Z,15.31
2018-09-05T00:25:18.679Z,15.33
2018-09-05T00:27:47.709Z,15.39
2018-09-05T00:30:16.390Z,15.35
2018-09-05T00:32:45.027Z,15.35
2018-09-05T00:35:13.588Z,15.30
2018-09-05T00:37:42.380Z,15.32
2018-09-05T00:40:11.123Z,15.25
2018-09-05T00:42:39.985Z,15.25
2018-09-05T00:45:08.738Z,15.25
2018-09-05T00:47:38.341Z,15.26
2018-09-05T00:50:07.172Z,15.26
2018-09-05T00:52:35.919Z,15.21
2018-09-05T00:55:04.639Z,15.21
2018-09-05T00:57:33.322Z,15.18
2018-09-05T01:00:02.194Z,15.16
2018-09-05T01:02:31.032Z,15.16
2018-09-05T01:05:01.628Z,15.13
2018-09-05T01:07:30.455Z,15.11
2018-09-05T01:09:59.072Z,15.10
2018-09-05T01:12:27.835Z,15.09
2018-09-05T01:14:56.621Z,15.05
2018-09-05T01:17:25.164Z,15.03
2018-09-05T01:19:53.726Z,15.03
2018-09-05T01:22:22.699Z,15.01
2018-09-05T01:24:51.614Z,14.99
2018-09-05T01:27:20.187Z,14.97
2018-09-05T01:29:48.755Z,14.95
2018-09-05T01:32:17.298Z,14.92
2018-09-05T01:34:45.914Z,14.87
2018-09-05T01:37:14.578Z,14.88
2018-09-05T01:39:43.955Z,14.87
2018-09-05T01:42:12.607Z,14.82
2018-09-05T01:44:41.732Z,14.84
2018-09-05T01:47:10.653Z,14.87
2018-09-05T01:49:39.847Z,14.81
2018-09-05T01:52:08.399Z,14.79
2018-09-05T01:54:37.002Z,14.77
2018-09-05T01:57:06.158Z,14.73
2018-09-05T01:59:34.637Z,14.71
2018-09-05T02:02:03.412Z,14.67
2018-09-05T02:04:32.219Z,14.60
2018-09-05T02:07:00.767Z,14.63
2018-09-05T02:09:29.274Z,14.63
2018-09-05T02:12:00.926Z,14.62
2018-09-05T02:14:29.441Z,14.60
2018-09-05T02:16:58.056Z,14.60
2018-09-05T02:19:27.139Z,14.58
2018-09-05T02:21:55.978Z,14.60
2018-09-05T02:24:24.615Z,14.59
2018-09-05T02:26:53.133Z,14.56
2018-09-05T02:29:22.351Z,14.55
2018-09-05T02:31:50.884Z,14.54
2018-09-05T02:34:19.780Z,14.47
2018-09-05T02:36:48.336Z,14.46
2018-09-05T02:39:16.967Z,14.50
2018-09-05T02:41:45.664Z,14.47
2018-09-05T02:44:22.195Z,14.42
2018-09-05T02:46:51.789Z,14.45
2018-09-05T02:49:20.705Z,14.43
2018-09-05T02:51:49.614Z,14.50
2018-09-05T02:54:18.238Z,14.62
2018-09-05T02:56:47.601Z,14.70
2018-09-05T02:59:16.067Z,14.92
2018-09-05T03:01:44.968Z,15.03
2018-09-05T03:04:13.659Z,15.08
2018-09-05T03:06:42.440Z,15.17
2018-09-05T03:09:10.982Z,15.23
2018-09-05T03:11:39.747Z,15.31
2018-09-05T03:14:09.307Z,15.36
2018-09-05T03:16:38.517Z,15.41
2018-09-05T03:19:06.966Z,15.43
2018-09-05T03:21:35.506Z,15.47
2018-09-05T03:24:03.961Z,15.45
2018-09-05T03:26:32.855Z,15.59
2018-09-05T03:29:01.346Z,15.70
2018-09-05T03:31:30.938Z,15.64
2018-09-05T03:33:59.473Z,15.54
2018-09-05T03:36:28.206Z,15.61
2018-09-05T03:38:56.839Z,15.65
2018-09-05T03:41:25.541Z,15.62
2018-09-05T03:43:53.989Z,15.67
2018-09-05T03:46:22.729Z,15.66
2018-09-05T03:48:51.383Z,15.65
2018-09-05T03:51:19.912Z,15.62
2018-09-05T03:53:48.887Z,15.60
2018-09-05T03:56:17.941Z,15.65
2018-09-05T03:58:46.995Z,15.78
